sensor_id;sensor_type;location;lat;lon;timestamp;P1;durP1;ratioP1;P2;durP2;ratioP2
14235;SDS011;7202;50.718;7.072;2023-10-08T00:01:16;5.43;;;3.78;;
14235;SDS011;7202;50.718;7.072;2023-10-08T00:03:45;5.03;;;3.13;;
14235;SDS011;7202;50.718;7.072;2023-10-08T00:06:17;6.28;;;3.40;;
14235;SDS011;7202;50.718;7.072;2023-10-08T00:08:48;6.43;;;3.67;;
14235;SDS011;7202;50.718;7.072;2023-10-08T00:11:18;5.03;;;3.45;;
14235;SDS011;7202;50.718;7.072;2023-10-08T00:13:49;4.75;;;3.15;;
14235;SDS011;7202;50.718;7.072;2023-10-08T00:16:22;5.00;;;3.20;;
14235;SDS011;7202;50.718;7.072;2023-10-08T00:18:51;7.13;;;4.03;;
14235;SDS011;7202;50.718;7.072;2023-10-08T00:21:20;7.05;;;3.70;;
14235;SDS011;7202;50.718;7.072;2023-10-08T00:23:54;7.72;;;3.45;;
14235;SDS011;7202;50.718;7.072;2023-10-08T00:26:27;4.82;;;3.33;;
14235;SDS011;7202;50.718;7.072;2023-10-08T00:28:59;5.57;;;3.67;;
14235;SDS011;7202;50.718;7.072;2023-10-08T00:31:33;7.38;;;3.35;;
14235;SDS011;7202;50.718;7.072;2023-10-08T00:34:07;5.10;;;3.10;;
14235;SDS011;7202;50.718;7.072;2023-10-08T00:36:38;5.32;;;3.45;;
14235;SDS011;7202;50.718;7.072;2023-10-08T00:39:08;6.20;;;3.58;;
14235;SDS011;7202;50.718;7.072;2023-10-08T00:41:42;5.43;;;3.97;;
14235;SDS011;7202;50.718;7.072;2023-10-08T00:44:12;7.72;;;3.70;;
14235;SDS011;7202;50.718;7.072;2023-10-08T00:46:43;8.18;;;3.58;;
14235;SDS011;7202;50.718;7.072;2023-10-08T00:49:15;6.55;;;3.55;;
14235;SDS011;7202;50.718;7.072;2023-10-08T00:52:08;8.23;;;3.47;;
14235;SDS011;7202;50.718;7.072;2023-10-08T00:54:51;5.43;;;3.35;;
14235;SDS011;7202;50.718;7.072;2023-10-08T00:57:34;7.53;;;3.05;;
14235;SDS011;7202;50.718;7.072;2023-10-08T01:00:09;4.80;;;3.28;;
14235;SDS011;7202;50.718;7.072;2023-10-08T01:02:48;5.00;;;3.22;;
14235;SDS011;7202;50.718;7.072;2023-10-08T01:05:27;5.28;;;3.15;;
14235;SDS011;7202;50.718;7.072;2023-10-08T01:08:14;5.57;;;3.42;;
14235;SDS011;7202;50.718;7.072;2023-10-08T01:10:50;7.43;;;3.67;;
14235;SDS011;7202;50.718;7.072;2023-10-08T01:13:31;7.65;;;3.50;;
14235;SDS011;7202;50.718;7.072;2023-10-08T01:16:09;6.38;;;3.00;;
14235;SDS011;7202;50.718;7.072;2023-10-08T01:18:38;7.25;;;3.22;;
14235;SDS011;7202;50.718;7.072;2023-10-08T01:21:10;8.23;;;4.05;;
14235;SDS011;7202;50.718;7.072;2023-10-08T01:23:57;6.55;;;3.88;;
14235;SDS011;7202;50.718;7.072;2023-10-08T01:26:27;5.88;;;3.20;;
14235;SDS011;7202;50.718;7.072;2023-10-08T01:28:58;9.38;;;3.40;;
14235;SDS011;7202;50.718;7.072;2023-10-08T01:31:33;6.63;;;3.45;;
14235;SDS011;7202;50.718;7.072;2023-10-08T01:34:03;5.03;;;3.10;;
14235;SDS011;7202;50.718;7.072;2023-10-08T01:36:34;6.15;;;3.72;;
14235;SDS011;7202;50.718;7.072;2023-10-08T01:39:04;6.32;;;3.63;;
14235;SDS011;7202;50.718;7.072;2023-10-08T01:41:33;5.50;;;3.20;;
14235;SDS011;7202;50.718;7.072;2023-10-08T01:44:07;7.72;;;3.75;;
14235;SDS011;7202;50.718;7.072;2023-10-08T01:46:36;7.03;;;3.72;;
14235;SDS011;7202;50.718;7.072;2023-10-08T01:49:07;6.10;;;3.45;;
14235;SDS011;7202;50.718;7.072;2023-10-08T01:51:41;6.53;;;3.10;;
14235;SDS011;7202;50.718;7.072;2023-10-08T01:54:15;5.75;;;2.90;;
14235;SDS011;7202;50.718;7.072;2023-10-08T01:56:45;5.50;;;3.63;;
14235;SDS011;7202;50.718;7.072;2023-10-08T01:59:15;4.18;;;3.25;;
14235;SDS011;7202;50.718;7.072;2023-10-08T02:01:43;7.15;;;4.00;;
14235;SDS011;7202;50.718;7.072;2023-10-08T02:04:13;7.70;;;3.67;;
14235;SDS011;7202;50.718;7.072;2023-10-08T02:06:44;4.60;;;2.92;;
14235;SDS011;7202;50.718;7.072;2023-10-08T02:09:13;5.53;;;3.50;;
14235;SDS011;7202;50.718;7.072;2023-10-08T02:11:44;6.95;;;3.53;;
14235;SDS011;7202;50.718;7.072;2023-10-08T02:14:17;5.72;;;3.60;;
14235;SDS011;7202;50.718;7.072;2023-10-08T02:16:46;5.65;;;3.50;;
14235;SDS011;7202;50.718;7.072;2023-10-08T02:19:15;5.35;;;3.60;;
14235;SDS011;7202;50.718;7.072;2023-10-08T02:21:53;8.02;;;3.60;;
14235;SDS011;7202;50.718;7.072;2023-10-08T02:24:23;6.57;;;3.78;;
14235;SDS011;7202;50.718;7.072;2023-10-08T02:26:53;6.65;;;3.10;;
14235;SDS011;7202;50.718;7.072;2023-10-08T02:29:25;8.10;;;3.67;;
14235;SDS011;7202;50.718;7.072;2023-10-08T02:31:54;7.05;;;3.45;;
14235;SDS011;7202;50.718;7.072;2023-10-08T02:34:23;6.80;;;3.70;;
14235;SDS011;7202;50.718;7.072;2023-10-08T02:36:52;6.10;;;3.13;;
14235;SDS011;7202;50.718;7.072;2023-10-08T02:39:23;7.78;;;3.60;;
14235;SDS011;7202;50.718;7.072;2023-10-08T02:41:53;7.47;;;3.38;;
14235;SDS011;7202;50.718;7.072;2023-10-08T02:44:24;4.70;;;3.35;;
14235;SDS011;7202;50.718;7.072;2023-10-08T02:46:52;7.47;;;3.67;;
14235;SDS011;7202;50.718;7.072;2023-10-08T02:49:21;7.65;;;3.13;;
14235;SDS011;7202;50.718;7.072;2023-10-08T02:51:51;6.72;;;3.25;;
14235;SDS011;7202;50.718;7.072;2023-10-08T02:54:24;5.72;;;3.40;;
14235;SDS011;7202;50.718;7.072;2023-10-08T02:56:59;6.60;;;3.35;;
14235;SDS011;7202;50.718;7.072;2023-10-08T02:59:31;7.30;;;3.28;;
14235;SDS011;7202;50.718;7.072;2023-10-08T03:02:08;5.95;;;3.85;;
14235;SDS011;7202;50.718;7.072;2023-10-08T03:04:42;6.13;;;3.67;;
14235;SDS011;7202;50.718;7.072;2023-10-08T03:07:13;9.30;;;3.83;;
14235;SDS011;7202;50.718;7.072;2023-10-08T03:09:52;7.43;;;3.25;;
14235;SDS011;7202;50.718;7.072;2023-10-08T03:12:31;6.20;;;3.47;;
14235;SDS011;7202;50.718;7.072;2023-10-08T03:15:01;5.38;;;3.38;;
14235;SDS011;7202;50.718;7.072;2023-10-08T03:17:40;5.85;;;3.33;;
14235;SDS011;7202;50.718;7.072;2023-10-08T03:20:16;8.43;;;3.60;;
14235;SDS011;7202;50.718;7.072;2023-10-08T03:23:05;7.00;;;3.53;;
14235;SDS011;7202;50.718;7.072;2023-10-08T03:25:41;6.50;;;2.65;;
14235;SDS011;7202;50.718;7.072;2023-10-08T03:28:12;7.28;;;3.25;;
14235;SDS011;7202;50.718;7.072;2023-10-08T03:30:43;6.70;;;3.50;;
14235;SDS011;7202;50.718;7.072;2023-10-08T03:33:19;7.53;;;3.53;;
14235;SDS011;7202;50.718;7.072;2023-10-08T03:35:51;5.93;;;4.03;;
14235;SDS011;7202;50.718;7.072;2023-10-08T03:38:22;7.13;;;3.30;;
14235;SDS011;7202;50.718;7.072;2023-10-08T03:41:12;5.55;;;3.60;;
14235;SDS011;7202;50.718;7.072;2023-10-08T03:43:44;8.95;;;3.78;;
14235;SDS011;7202;50.718;7.072;2023-10-08T03:46:20;5.07;;;3.35;;
14235;SDS011;7202;50.718;7.072;2023-10-08T03:48:51;9.05;;;3.47;;
14235;SDS011;7202;50.718;7.072;2023-10-08T03:51:21;6.10;;;3.25;;
14235;SDS011;7202;50.718;7.072;2023-10-08T03:53:54;5.10;;;3.60;;
14235;SDS011;7202;50.718;7.072;2023-10-08T03:56:28;9.25;;;3.60;;
14235;SDS011;7202;50.718;7.072;2023-10-08T03:58:59;4.55;;;3.50;;
14235;SDS011;7202;50.718;7.072;2023-10-08T04:01:31;7.45;;;3.63;;
14235;SDS011;7202;50.718;7.072;2023-10-08T04:04:01;7.40;;;3.72;;
14235;SDS011;7202;50.718;7.072;2023-10-08T04:06:31;7.97;;;4.25;;
14235;SDS011;7202;50.718;7.072;2023-10-08T04:09:05;6.07;;;3.50;;
14235;SDS011;7202;50.718;7.072;2023-10-08T04:11:45;6.97;;;3.25;;
14235;SDS011;7202;50.718;7.072;2023-10-08T04:14:26;6.70;;;3.45;;
14235;SDS011;7202;50.718;7.072;2023-10-08T04:16:55;6.72;;;3.80;;
14235;SDS011;7202;50.718;7.072;2023-10-08T04:19:26;6.50;;;3.28;;
14235;SDS011;7202;50.718;7.072;2023-10-08T04:21:56;5.07;;;3.38;;
14235;SDS011;7202;50.718;7.072;2023-10-08T04:24:25;6.60;;;3.88;;
14235;SDS011;7202;50.718;7.072;2023-10-08T04:27:03;7.53;;;4.30;;
14235;SDS011;7202;50.718;7.072;2023-10-08T04:29:36;11.23;;;3.58;;
14235;SDS011;7202;50.718;7.072;2023-10-08T04:32:06;6.78;;;3.75;;
14235;SDS011;7202;50.718;7.072;2023-10-08T04:34:45;7.57;;;3.78;;
14235;SDS011;7202;50.718;7.072;2023-10-08T04:37:17;7.82;;;3.55;;
14235;SDS011;7202;50.718;7.072;2023-10-08T04:39:47;6.75;;;4.50;;
14235;SDS011;7202;50.718;7.072;2023-10-08T04:42:27;5.72;;;3.42;;
14235;SDS011;7202;50.718;7.072;2023-10-08T04:44:56;6.20;;;3.63;;
14235;SDS011;7202;50.718;7.072;2023-10-08T04:47:26;7.43;;;3.70;;
14235;SDS011;7202;50.718;7.072;2023-10-08T04:50:03;8.93;;;4.18;;
14235;SDS011;7202;50.718;7.072;2023-10-08T04:52:33;6.30;;;3.65;;
14235;SDS011;7202;50.718;7.072;2023-10-08T04:55:14;5.55;;;3.58;;
14235;SDS011;7202;50.718;7.072;2023-10-08T04:57:49;6.43;;;4.07;;
14235;SDS011;7202;50.718;7.072;2023-10-08T05:00:20;6.18;;;3.97;;
14235;SDS011;7202;50.718;7.072;2023-10-08T05:03:08;8.38;;;3.78;;
14235;SDS011;7202;50.718;7.072;2023-10-08T05:05:42;5.53;;;3.67;;
14235;SDS011;7202;50.718;7.072;2023-10-08T05:08:25;10.60;;;4.32;;
14235;SDS011;7202;50.718;7.072;2023-10-08T05:11:00;7.05;;;4.45;;
14235;SDS011;7202;50.718;7.072;2023-10-08T05:13:43;7.50;;;4.82;;
14235;SDS011;7202;50.718;7.072;2023-10-08T05:16:23;9.27;;;4.10;;
14235;SDS011;7202;50.718;7.072;2023-10-08T05:19:03;6.93;;;3.67;;
14235;SDS011;7202;50.718;7.072;2023-10-08T05:21:51;7.00;;;3.90;;
14235;SDS011;7202;50.718;7.072;2023-10-08T05:24:29;9.75;;;4.45;;
14235;SDS011;7202;50.718;7.072;2023-10-08T05:27:06;6.38;;;3.80;;
14235;SDS011;7202;50.718;7.072;2023-10-08T05:29:53;7.10;;;3.70;;
14235;SDS011;7202;50.718;7.072;2023-10-08T05:32:36;8.18;;;3.63;;
14235;SDS011;7202;50.718;7.072;2023-10-08T05:35:33;6.32;;;3.50;;
14235;SDS011;7202;50.718;7.072;2023-10-08T05:38:17;6.80;;;3.90;;
14235;SDS011;7202;50.718;7.072;2023-10-08T05:40:51;9.23;;;3.80;;
14235;SDS011;7202;50.718;7.072;2023-10-08T05:43:40;8.35;;;4.03;;
14235;SDS011;7202;50.718;7.072;2023-10-08T05:46:43;6.78;;;4.38;;
14235;SDS011;7202;50.718;7.072;2023-10-08T05:49:34;6.43;;;3.80;;
14235;SDS011;7202;50.718;7.072;2023-10-08T05:52:22;5.63;;;3.78;;
14235;SDS011;7202;50.718;7.072;2023-10-08T05:54:54;8.60;;;4.28;;
14235;SDS011;7202;50.718;7.072;2023-10-08T05:57:42;9.90;;;3.63;;
14235;SDS011;7202;50.718;7.072;2023-10-08T06:00:18;6.15;;;3.83;;
14235;SDS011;7202;50.718;7.072;2023-10-08T06:03:06;6.68;;;3.80;;
14235;SDS011;7202;50.718;7.072;2023-10-08T06:05:39;7.40;;;3.75;;
14235;SDS011;7202;50.718;7.072;2023-10-08T06:08:29;10.35;;;3.70;;
14235;SDS011;7202;50.718;7.072;2023-10-08T06:11:16;5.38;;;3.78;;
14235;SDS011;7202;50.718;7.072;2023-10-08T06:14:03;10.95;;;5.03;;
14235;SDS011;7202;50.718;7.072;2023-10-08T06:16:40;8.18;;;4.22;;
14235;SDS011;7202;50.718;7.072;2023-10-08T06:19:11;5.88;;;4.10;;
14235;SDS011;7202;50.718;7.072;2023-10-08T06:21:41;5.50;;;4.00;;
14235;SDS011;7202;50.718;7.072;2023-10-08T06:24:10;5.68;;;4.20;;
14235;SDS011;7202;50.718;7.072;2023-10-08T06:26:43;6.78;;;4.20;;
14235;SDS011;7202;50.718;7.072;2023-10-08T06:29:15;6.18;;;4.45;;
14235;SDS011;7202;50.718;7.072;2023-10-08T06:31:54;11.32;;;4.57;;
14235;SDS011;7202;50.718;7.072;2023-10-08T06:34:25;8.23;;;4.30;;
14235;SDS011;7202;50.718;7.072;2023-10-08T06:36:55;9.35;;;4.43;;
14235;SDS011;7202;50.718;7.072;2023-10-08T06:39:26;7.70;;;4.15;;
14235;SDS011;7202;50.718;7.072;2023-10-08T06:42:14;10.10;;;4.00;;
14235;SDS011;7202;50.718;7.072;2023-10-08T06:44:43;8.15;;;4.15;;
14235;SDS011;7202;50.718;7.072;2023-10-08T06:47:15;10.25;;;4.40;;
14235;SDS011;7202;50.718;7.072;2023-10-08T06:49:47;6.88;;;4.15;;
14235;SDS011;7202;50.718;7.072;2023-10-08T06:52:16;10.05;;;4.60;;
14235;SDS011;7202;50.718;7.072;2023-10-08T06:54:45;6.70;;;4.15;;
14235;SDS011;7202;50.718;7.072;2023-10-08T06:57:14;4.35;;;3.45;;
14235;SDS011;7202;50.718;7.072;2023-10-08T06:59:47;7.75;;;4.05;;
14235;SDS011;7202;50.718;7.072;2023-10-08T07:02:17;6.70;;;3.72;;
14235;SDS011;7202;50.718;7.072;2023-10-08T07:04:48;6.57;;;4.05;;
14235;SDS011;7202;50.718;7.072;2023-10-08T07:07:18;7.10;;;4.32;;
14235;SDS011;7202;50.718;7.072;2023-10-08T07:09:47;6.32;;;4.05;;
14235;SDS011;7202;50.718;7.072;2023-10-08T07:12:18;7.22;;;3.95;;
14235;SDS011;7202;50.718;7.072;2023-10-08T07:14:51;9.45;;;4.57;;
14235;SDS011;7202;50.718;7.072;2023-10-08T07:17:21;6.57;;;4.35;;
14235;SDS011;7202;50.718;7.072;2023-10-08T07:19:52;12.73;;;4.40;;
14235;SDS011;7202;50.718;7.072;2023-10-08T07:22:20;7.72;;;4.32;;
14235;SDS011;7202;50.718;7.072;2023-10-08T07:24:50;6.95;;;3.95;;
14235;SDS011;7202;50.718;7.072;2023-10-08T07:27:20;6.35;;;3.80;;
14235;SDS011;7202;50.718;7.072;2023-10-08T07:29:51;5.57;;;3.60;;
14235;SDS011;7202;50.718;7.072;2023-10-08T07:32:23;8.52;;;3.78;;
14235;SDS011;7202;50.718;7.072;2023-10-08T07:34:54;7.93;;;4.00;;
14235;SDS011;7202;50.718;7.072;2023-10-08T07:37:41;6.43;;;3.95;;
14235;SDS011;7202;50.718;7.072;2023-10-08T07:40:12;8.20;;;4.15;;
14235;SDS011;7202;50.718;7.072;2023-10-08T07:42:42;5.93;;;4.15;;
14235;SDS011;7202;50.718;7.072;2023-10-08T07:45:11;6.45;;;4.05;;
14235;SDS011;7202;50.718;7.072;2023-10-08T07:47:44;10.88;;;4.43;;
14235;SDS011;7202;50.718;7.072;2023-10-08T07:50:15;7.40;;;4.78;;
14235;SDS011;7202;50.718;7.072;2023-10-08T07:52:43;6.78;;;4.60;;
14235;SDS011;7202;50.718;7.072;2023-10-08T07:55:12;8.85;;;4.07;;
14235;SDS011;7202;50.718;7.072;2023-10-08T07:57:45;7.53;;;4.20;;
14235;SDS011;7202;50.718;7.072;2023-10-08T08:00:14;7.43;;;4.25;;
14235;SDS011;7202;50.718;7.072;2023-10-08T08:02:50;9.55;;;4.13;;
14235;SDS011;7202;50.718;7.072;2023-10-08T08:05:23;7.47;;;4.18;;
14235;SDS011;7202;50.718;7.072;2023-10-08T08:07:53;10.98;;;4.45;;
14235;SDS011;7202;50.718;7.072;2023-10-08T08:10:23;8.82;;;4.20;;
14235;SDS011;7202;50.718;7.072;2023-10-08T08:12:51;7.78;;;4.43;;
14235;SDS011;7202;50.718;7.072;2023-10-08T08:15:23;8.95;;;4.38;;
14235;SDS011;7202;50.718;7.072;2023-10-08T08:17:54;6.93;;;4.45;;
14235;SDS011;7202;50.718;7.072;2023-10-08T08:20:25;8.55;;;4.40;;
14235;SDS011;7202;50.718;7.072;2023-10-08T08:23:06;7.47;;;4.07;;
14235;SDS011;7202;50.718;7.072;2023-10-08T08:25:36;9.18;;;4.10;;
14235;SDS011;7202;50.718;7.072;2023-10-08T08:28:12;7.45;;;4.40;;
14235;SDS011;7202;50.718;7.072;2023-10-08T08:30:47;5.95;;;4.10;;
14235;SDS011;7202;50.718;7.072;2023-10-08T08:33:19;9.35;;;4.28;;
14235;SDS011;7202;50.718;7.072;2023-10-08T08:36:00;7.68;;;4.60;;
14235;SDS011;7202;50.718;7.072;2023-10-08T08:38:32;9.45;;;4.82;;
14235;SDS011;7202;50.718;7.072;2023-10-08T08:41:01;5.65;;;4.22;;
14235;SDS011;7202;50.718;7.072;2023-10-08T08:43:33;9.70;;;4.43;;
14235;SDS011;7202;50.718;7.072;2023-10-08T08:46:03;10.85;;;4.50;;
14235;SDS011;7202;50.718;7.072;2023-10-08T08:48:34;9.73;;;4.72;;
14235;SDS011;7202;50.718;7.072;2023-10-08T08:51:07;8.48;;;4.28;;
14235;SDS011;7202;50.718;7.072;2023-10-08T08:53:36;9.60;;;4.85;;
14235;SDS011;7202;50.718;7.072;2023-10-08T08:56:06;9.85;;;4.50;;
14235;SDS011;7202;50.718;7.072;2023-10-08T08:58:37;7.32;;;4.45;;
14235;SDS011;7202;50.718;7.072;2023-10-08T09:01:08;8.43;;;4.28;;
14235;SDS011;7202;50.718;7.072;2023-10-08T09:03:41;6.85;;;4.28;;
14235;SDS011;7202;50.718;7.072;2023-10-08T09:06:11;8.27;;;4.18;;
14235;SDS011;7202;50.718;7.072;2023-10-08T09:08:40;7.38;;;4.47;;
14235;SDS011;7202;50.718;7.072;2023-10-08T09:11:13;9.68;;;4.60;;
14235;SDS011;7202;50.718;7.072;2023-10-08T09:13:43;8.38;;;4.25;;
14235;SDS011;7202;50.718;7.072;2023-10-08T09:16:12;7.65;;;4.32;;
14235;SDS011;7202;50.718;7.072;2023-10-08T09:18:42;7.03;;;4.00;;
14235;SDS011;7202;50.718;7.072;2023-10-08T09:21:15;11.02;;;5.40;;
14235;SDS011;7202;50.718;7.072;2023-10-08T09:23:49;8.80;;;4.60;;
14235;SDS011;7202;50.718;7.072;2023-10-08T09:26:18;9.13;;;4.70;;
14235;SDS011;7202;50.718;7.072;2023-10-08T09:28:51;7.90;;;4.28;;
14235;SDS011;7202;50.718;7.072;2023-10-08T09:31:22;11.10;;;4.75;;
14235;SDS011;7202;50.718;7.072;2023-10-08T09:33:54;10.70;;;4.80;;
14235;SDS011;7202;50.718;7.072;2023-10-08T09:36:25;14.52;;;5.30;;
14235;SDS011;7202;50.718;7.072;2023-10-08T09:38:59;10.85;;;4.93;;
14235;SDS011;7202;50.718;7.072;2023-10-08T09:41:31;11.52;;;5.07;;
14235;SDS011;7202;50.718;7.072;2023-10-08T09:44:01;10.40;;;5.38;;
14235;SDS011;7202;50.718;7.072;2023-10-08T09:46:31;8.55;;;4.75;;
14235;SDS011;7202;50.718;7.072;2023-10-08T09:49:02;10.55;;;5.00;;
14235;SDS011;7202;50.718;7.072;2023-10-08T09:51:37;10.15;;;5.07;;
14235;SDS011;7202;50.718;7.072;2023-10-08T09:54:09;7.97;;;4.28;;
14235;SDS011;7202;50.718;7.072;2023-10-08T09:56:41;16.98;;;6.28;;
14235;SDS011;7202;50.718;7.072;2023-10-08T09:59:11;9.77;;;5.25;;
14235;SDS011;7202;50.718;7.072;2023-10-08T10:01:42;9.90;;;5.55;;
14235;SDS011;7202;50.718;7.072;2023-10-08T10:04:12;11.10;;;5.72;;
14235;SDS011;7202;50.718;7.072;2023-10-08T10:06:52;16.58;;;5.95;;
14235;SDS011;7202;50.718;7.072;2023-10-08T10:09:21;16.15;;;6.55;;
14235;SDS011;7202;50.718;7.072;2023-10-08T10:11:52;16.70;;;7.75;;
14235;SDS011;7202;50.718;7.072;2023-10-08T10:14:23;15.13;;;5.95;;
14235;SDS011;7202;50.718;7.072;2023-10-08T10:17:09;10.52;;;6.10;;
14235;SDS011;7202;50.718;7.072;2023-10-08T10:19:59;18.05;;;7.25;;
14235;SDS011;7202;50.718;7.072;2023-10-08T10:22:31;15.77;;;6.43;;
14235;SDS011;7202;50.718;7.072;2023-10-08T10:25:01;9.93;;;5.97;;
14235;SDS011;7202;50.718;7.072;2023-10-08T10:27:41;17.38;;;6.32;;
14235;SDS011;7202;50.718;7.072;2023-10-08T10:30:10;13.73;;;6.05;;
14235;SDS011;7202;50.718;7.072;2023-10-08T10:32:51;11.15;;;5.57;;
14235;SDS011;7202;50.718;7.072;2023-10-08T10:35:20;11.68;;;6.93;;
14235;SDS011;7202;50.718;7.072;2023-10-08T10:37:52;15.07;;;7.20;;
14235;SDS011;7202;50.718;7.072;2023-10-08T10:40:23;19.15;;;8.52;;
14235;SDS011;7202;50.718;7.072;2023-10-08T10:42:56;18.25;;;6.88;;
14235;SDS011;7202;50.718;7.072;2023-10-08T10:45:28;11.50;;;5.93;;
14235;SDS011;7202;50.718;7.072;2023-10-08T10:48:10;13.40;;;6.35;;
14235;SDS011;7202;50.718;7.072;2023-10-08T10:50:50;14.15;;;6.50;;
14235;SDS011;7202;50.718;7.072;2023-10-08T10:53:35;16.30;;;5.65;;
14235;SDS011;7202;50.718;7.072;2023-10-08T10:56:12;13.13;;;6.57;;
14235;SDS011;7202;50.718;7.072;2023-10-08T10:58:46;14.90;;;6.20;;
14235;SDS011;7202;50.718;7.072;2023-10-08T11:01:22;10.07;;;6.05;;
14235;SDS011;7202;50.718;7.072;2023-10-08T11:03:53;12.50;;;5.68;;
14235;SDS011;7202;50.718;7.072;2023-10-08T11:06:24;13.25;;;6.40;;
14235;SDS011;7202;50.718;7.072;2023-10-08T11:08:55;10.70;;;6.32;;
14235;SDS011;7202;50.718;7.072;2023-10-08T11:11:25;17.50;;;7.22;;
14235;SDS011;7202;50.718;7.072;2023-10-08T11:13:55;12.38;;;6.47;;
14235;SDS011;7202;50.718;7.072;2023-10-08T11:16:28;13.93;;;6.93;;
14235;SDS011;7202;50.718;7.072;2023-10-08T11:18:58;11.00;;;6.47;;
14235;SDS011;7202;50.718;7.072;2023-10-08T11:21:47;14.70;;;6.97;;
14235;SDS011;7202;50.718;7.072;2023-10-08T11:24:28;16.20;;;7.00;;
14235;SDS011;7202;50.718;7.072;2023-10-08T11:27:00;13.10;;;5.78;;
14235;SDS011;7202;50.718;7.072;2023-10-08T11:29:43;12.90;;;6.40;;
14235;SDS011;7202;50.718;7.072;2023-10-08T11:32:14;13.75;;;6.05;;
14235;SDS011;7202;50.718;7.072;2023-10-08T11:34:45;16.23;;;7.10;;
14235;SDS011;7202;50.718;7.072;2023-10-08T11:37:26;13.45;;;7.10;;
14235;SDS011;7202;50.718;7.072;2023-10-08T11:39:56;17.42;;;7.28;;
14235;SDS011;7202;50.718;7.072;2023-10-08T11:42:35;13.63;;;6.78;;
14235;SDS011;7202;50.718;7.072;2023-10-08T11:45:11;15.57;;;6.43;;
14235;SDS011;7202;50.718;7.072;2023-10-08T11:47:46;13.95;;;6.95;;
14235;SDS011;7202;50.718;7.072;2023-10-08T11:50:16;12.98;;;6.57;;
14235;SDS011;7202;50.718;7.072;2023-10-08T11:52:46;14.07;;;6.07;;
14235;SDS011;7202;50.718;7.072;2023-10-08T11:55:18;11.57;;;5.90;;
14235;SDS011;7202;50.718;7.072;2023-10-08T11:57:46;13.90;;;7.18;;
14235;SDS011;7202;50.718;7.072;2023-10-08T12:00:16;16.38;;;7.63;;
14235;SDS011;7202;50.718;7.072;2023-10-08T12:02:58;15.98;;;7.03;;
14235;SDS011;7202;50.718;7.072;2023-10-08T12:05:29;18.95;;;7.00;;
14235;SDS011;7202;50.718;7.072;2023-10-08T12:07:59;11.15;;;6.22;;
14235;SDS011;7202;50.718;7.072;2023-10-08T12:10:29;24.50;;;7.40;;
14235;SDS011;7202;50.718;7.072;2023-10-08T12:13:01;14.55;;;7.53;;
14235;SDS011;7202;50.718;7.072;2023-10-08T12:15:32;14.90;;;6.53;;
14235;SDS011;7202;50.718;7.072;2023-10-08T12:18:05;16.20;;;8.07;;
14235;SDS011;7202;50.718;7.072;2023-10-08T12:20:42;13.35;;;7.32;;
14235;SDS011;7202;50.718;7.072;2023-10-08T12:23:13;10.13;;;5.93;;
14235;SDS011;7202;50.718;7.072;2023-10-08T12:25:53;18.58;;;7.63;;
14235;SDS011;7202;50.718;7.072;2023-10-08T12:28:23;14.77;;;7.43;;
14235;SDS011;7202;50.718;7.072;2023-10-08T12:30:52;12.32;;;6.63;;
14235;SDS011;7202;50.718;7.072;2023-10-08T12:33:21;16.92;;;7.38;;
14235;SDS011;7202;50.718;7.072;2023-10-08T12:35:51;20.45;;;7.32;;
14235;SDS011;7202;50.718;7.072;2023-10-08T12:38:20;15.20;;;6.97;;
14235;SDS011;7202;50.718;7.072;2023-10-08T12:40:49;14.45;;;6.97;;
14235;SDS011;7202;50.718;7.072;2023-10-08T12:43:22;17.77;;;7.28;;
14235;SDS011;7202;50.718;7.072;2023-10-08T12:45:54;12.45;;;6.72;;
14235;SDS011;7202;50.718;7.072;2023-10-08T12:48:24;12.82;;;7.03;;
14235;SDS011;7202;50.718;7.072;2023-10-08T12:50:54;18.17;;;7.90;;
14235;SDS011;7202;50.718;7.072;2023-10-08T12:53:24;16.73;;;6.78;;
14235;SDS011;7202;50.718;7.072;2023-10-08T12:56:02;16.20;;;7.20;;
14235;SDS011;7202;50.718;7.072;2023-10-08T12:58:35;16.55;;;7.50;;
14235;SDS011;7202;50.718;7.072;2023-10-08T13:01:08;14.77;;;7.10;;
14235;SDS011;7202;50.718;7.072;2023-10-08T13:03:37;12.60;;;7.15;;
14235;SDS011;7202;50.718;7.072;2023-10-08T13:06:09;19.33;;;7.78;;
14235;SDS011;7202;50.718;7.072;2023-10-08T13:08:41;15.55;;;6.95;;
14235;SDS011;7202;50.718;7.072;2023-10-08T13:11:10;19.55;;;8.57;;
14235;SDS011;7202;50.718;7.072;2023-10-08T13:13:40;15.90;;;7.30;;
14235;SDS011;7202;50.718;7.072;2023-10-08T13:16:08;15.27;;;6.30;;
14235;SDS011;7202;50.718;7.072;2023-10-08T13:18:37;17.92;;;7.30;;
14235;SDS011;7202;50.718;7.072;2023-10-08T13:21:09;18.05;;;7.18;;
14235;SDS011;7202;50.718;7.072;2023-10-08T13:23:39;15.80;;;7.13;;
14235;SDS011;7202;50.718;7.072;2023-10-08T13:26:08;14.40;;;8.27;;
14235;SDS011;7202;50.718;7.072;2023-10-08T13:28:45;17.50;;;8.27;;
14235;SDS011;7202;50.718;7.072;2023-10-08T13:31:13;17.80;;;8.15;;
14235;SDS011;7202;50.718;7.072;2023-10-08T13:33:44;14.50;;;6.78;;
14235;SDS011;7202;50.718;7.072;2023-10-08T13:36:15;19.05;;;8.02;;
14235;SDS011;7202;50.718;7.072;2023-10-08T13:38:45;17.02;;;8.43;;
14235;SDS011;7202;50.718;7.072;2023-10-08T13:41:14;13.98;;;7.10;;
14235;SDS011;7202;50.718;7.072;2023-10-08T13:43:46;19.42;;;7.53;;
14235;SDS011;7202;50.718;7.072;2023-10-08T13:46:19;12.20;;;6.82;;
14235;SDS011;7202;50.718;7.072;2023-10-08T13:48:50;16.83;;;8.00;;
14235;SDS011;7202;50.718;7.072;2023-10-08T13:51:19;15.82;;;7.95;;
14235;SDS011;7202;50.718;7.072;2023-10-08T13:53:52;21.63;;;8.25;;
14235;SDS011;7202;50.718;7.072;2023-10-08T13:56:27;18.02;;;8.98;;
14235;SDS011;7202;50.718;7.072;2023-10-08T13:58:59;15.88;;;8.32;;
14235;SDS011;7202;50.718;7.072;2023-10-08T14:01:39;18.67;;;9.20;;
14235;SDS011;7202;50.718;7.072;2023-10-08T14:04:10;20.15;;;8.07;;
14235;SDS011;7202;50.718;7.072;2023-10-08T14:06:45;17.08;;;8.57;;
14235;SDS011;7202;50.718;7.072;2023-10-08T14:09:19;21.10;;;9.70;;
14235;SDS011;7202;50.718;7.072;2023-10-08T14:11:49;16.13;;;8.75;;
14235;SDS011;7202;50.718;7.072;2023-10-08T14:14:21;16.85;;;8.80;;
14235;SDS011;7202;50.718;7.072;2023-10-08T14:16:51;19.60;;;9.48;;
14235;SDS011;7202;50.718;7.072;2023-10-08T14:19:21;17.50;;;8.93;;
14235;SDS011;7202;50.718;7.072;2023-10-08T14:21:56;18.38;;;8.85;;
14235;SDS011;7202;50.718;7.072;2023-10-08T14:24:30;18.83;;;9.40;;
14235;SDS011;7202;50.718;7.072;2023-10-08T14:27:02;19.08;;;9.45;;
14235;SDS011;7202;50.718;7.072;2023-10-08T14:29:38;16.73;;;9.57;;
14235;SDS011;7202;50.718;7.072;2023-10-08T14:32:11;16.48;;;9.27;;
14235;SDS011;7202;50.718;7.072;2023-10-08T14:34:39;17.60;;;8.70;;
14235;SDS011;7202;50.718;7.072;2023-10-08T14:37:26;15.55;;;8.90;;
14235;SDS011;7202;50.718;7.072;2023-10-08T14:40:15;18.88;;;9.05;;
14235;SDS011;7202;50.718;7.072;2023-10-08T14:43:01;14.20;;;8.18;;
14235;SDS011;7202;50.718;7.072;2023-10-08T14:45:34;13.93;;;7.60;;
14235;SDS011;7202;50.718;7.072;2023-10-08T14:48:03;16.60;;;8.40;;
14235;SDS011;7202;50.718;7.072;2023-10-08T14:50:38;12.65;;;7.57;;
14235;SDS011;7202;50.718;7.072;2023-10-08T14:53:09;12.95;;;8.20;;
14235;SDS011;7202;50.718;7.072;2023-10-08T14:55:38;12.52;;;7.65;;
14235;SDS011;7202;50.718;7.072;2023-10-08T14:58:07;21.63;;;8.38;;
14235;SDS011;7202;50.718;7.072;2023-10-08T15:00:38;18.45;;;8.80;;
14235;SDS011;7202;50.718;7.072;2023-10-08T15:03:08;13.38;;;8.80;;
14235;SDS011;7202;50.718;7.072;2023-10-08T15:05:39;18.88;;;8.85;;
14235;SDS011;7202;50.718;7.072;2023-10-08T15:08:08;19.60;;;9.30;;
14235;SDS011;7202;50.718;7.072;2023-10-08T15:10:38;13.73;;;7.47;;
14235;SDS011;7202;50.718;7.072;2023-10-08T15:13:07;15.43;;;8.02;;
14235;SDS011;7202;50.718;7.072;2023-10-08T15:15:35;13.25;;;7.32;;
14235;SDS011;7202;50.718;7.072;2023-10-08T15:18:08;16.80;;;8.43;;
14235;SDS011;7202;50.718;7.072;2023-10-08T15:20:39;16.60;;;7.43;;
14235;SDS011;7202;50.718;7.072;2023-10-08T15:23:08;14.27;;;7.63;;
14235;SDS011;7202;50.718;7.072;2023-10-08T15:25:39;15.90;;;8.32;;
14235;SDS011;7202;50.718;7.072;2023-10-08T15:28:08;14.68;;;8.13;;
14235;SDS011;7202;50.718;7.072;2023-10-08T15:30:37;12.68;;;7.78;;
14235;SDS011;7202;50.718;7.072;2023-10-08T15:33:06;16.08;;;8.75;;